sensor_id;sensor_type;location;lat;lon;timestamp;pressure;altitude;pressure_sealevel;temperature;humidity
12219;BME280;6172;42.646;23.344;2023-03-25T00:00:15;94303.00;;;8.24;100.00
12219;BME280;6172;42.646;23.344;2023-03-25T00:02:47;94295.59;;;8.25;100.00
12219;BME280;6172;42.646;23.344;2023-03-25T00:05:20;94304.41;;;8.36;100.00
12219;BME280;6172;42.646;23.344;2023-03-25T00:07:51;94303.19;;;8.40;100.00
12219;BME280;6172;42.646;23.344;2023-03-25T00:10:19;94307.06;;;8.39;100.00
12219;BME280;6172;42.646;23.344;2023-03-25T00:12:50;94313.66;;;8.42;100.00
12219;BME280;6172;42.646;23.344;2023-03-25T00:15:18;94302.06;;;8.38;100.00
12219;BME280;6172;42.646;23.344;2023-03-25T00:17:47;94304.78;;;8.38;100.00
12219;BME280;6172;42.646;23.344;2023-03-25T00:20:14;94290.91;;;8.29;100.00
12219;BME280;6172;42.646;23.344;2023-03-25T00:22:42;94298.19;;;8.39;100.00
12219;BME280;6172;42.646;23.344;2023-03-25T00:25:13;94291.63;;;8.33;100.00
12219;BME280;6172;42.646;23.344;2023-03-25T00:27:43;94294.25;;;8.43;100.00
12219;BME280;6172;42.646;23.344;2023-03-25T00:30:11;94274.22;;;8.30;100.00
12219;BME280;6172;42.646;23.344;2023-03-25T00:32:39;94284.69;;;8.32;100.00
12219;BME280;6172;42.646;23.344;2023-03-25T00:35:06;94278.41;;;8.35;100.00
12219;BME280;6172;42.646;23.344;2023-03-25T00:37:34;94285.00;;;8.34;100.00
12219;BME280;6172;42.646;23.344;2023-03-25T00:40:01;94280.69;;;8.09;100.00
12219;BME280;6172;42.646;23.344;2023-03-25T00:42:29;94279.72;;;7.93;100.00
12219;BME280;6172;42.646;23.344;2023-03-25T00:44:59;94282.19;;;7.84;100.00
12219;BME280;6172;42.646;23.344;2023-03-25T00:47:26;94283.69;;;7.88;100.00
12219;BME280;6172;42.646;23.344;2023-03-25T00:49:53;94276.38;;;7.82;100.00
12219;BME280;6172;42.646;23.344;2023-03-25T00:52:20;94276.63;;;7.61;100.00
12219;BME280;6172;42.646;23.344;2023-03-25T00:54:47;94268.56;;;7.54;100.00
12219;BME280;6172;42.646;23.344;2023-03-25T00:57:14;94274.31;;;7.59;100.00
12219;BME280;6172;42.646;23.344;2023-03-25T00:59:43;94276.09;;;7.73;100.00
12219;BME280;6172;42.646;23.344;2023-03-25T01:02:10;94276.16;;;7.69;100.00
12219;BME280;6172;42.646;23.344;2023-03-25T01:04:38;94263.78;;;7.65;100.00
12219;BME280;6172;42.646;23.344;2023-03-25T01:07:05;94262.94;;;7.38;100.00
12219;BME280;6172;42.646;23.344;2023-03-25T01:09:32;94257.59;;;7.31;100.00
12219;BME280;6172;42.646;23.344;2023-03-25T01:11:59;94259.81;;;7.39;100.00
12219;BME280;6172;42.646;23.344;2023-03-25T01:14:26;94254.72;;;7.45;100.00
12219;BME280;6172;42.646;23.344;2023-03-25T01:16:57;94254.16;;;7.23;100.00
12219;BME280;6172;42.646;23.344;2023-03-25T01:19:24;94256.44;;;7.28;100.00
12219;BME280;6172;42.646;23.344;2023-03-25T01:21:51;94253.34;;;6.89;100.00
12219;BME280;6172;42.646;23.344;2023-03-25T01:24:18;94253.81;;;6.77;100.00
12219;BME280;6172;42.646;23.344;2023-03-25T01:26:45;94252.97;;;6.84;100.00
12219;BME280;6172;42.646;23.344;2023-03-25T01:29:14;94243.31;;;6.83;100.00
12219;BME280;6172;42.646;23.344;2023-03-25T01:31:40;94241.75;;;6.85;100.00
12219;BME280;6172;42.646;23.344;2023-03-25T01:34:10;94243.94;;;7.01;100.00
12219;BME280;6172;42.646;23.344;2023-03-25T01:36:37;94245.44;;;7.05;100.00
12219;BME280;6172;42.646;23.344;2023-03-25T01:39:06;94236.09;;;7.10;100.00
12219;BME280;6172;42.646;23.344;2023-03-25T01:41:35;94236.00;;;7.20;100.00
12219;BME280;6172;42.646;23.344;2023-03-25T01:44:06;94234.16;;;7.14;100.00
12219;BME280;6172;42.646;23.344;2023-03-25T01:46:37;94233.59;;;7.29;100.00
12219;BME280;6172;42.646;23.344;2023-03-25T01:49:06;94222.78;;;7.26;100.00
12219;BME280;6172;42.646;23.344;2023-03-25T01:51:39;94220.44;;;7.28;100.00
12219;BME280;6172;42.646;23.344;2023-03-25T01:54:11;94219.63;;;7.31;100.00
12219;BME280;6172;42.646;23.344;2023-03-25T01:56:44;94223.03;;;7.38;100.00
12219;BME280;6172;42.646;23.344;2023-03-25T01:59:14;94222.69;;;7.33;100.00
12219;BME280;6172;42.646;23.344;2023-03-25T02:01:43;94231.59;;;7.33;100.00
12219;BME280;6172;42.646;23.344;2023-03-25T02:04:12;94231.13;;;7.42;100.00
12219;BME280;6172;42.646;23.344;2023-03-25T02:06:50;94219.59;;;7.34;100.00
12219;BME280;6172;42.646;23.344;2023-03-25T02:09:20;94221.94;;;7.32;100.00
12219;BME280;6172;42.646;23.344;2023-03-25T02:11:49;94215.44;;;7.26;100.00
12219;BME280;6172;42.646;23.344;2023-03-25T02:14:21;94210.59;;;7.04;100.00
12219;BME280;6172;42.646;23.344;2023-03-25T02:16:56;94212.25;;;6.98;100.00
12219;BME280;6172;42.646;23.344;2023-03-25T02:22:43;94207.50;;;7.05;100.00
12219;BME280;6172;42.646;23.344;2023-03-25T02:28:24;94210.00;;;6.89;100.00
12219;BME280;6172;42.646;23.344;2023-03-25T02:31:24;94214.06;;;6.67;100.00
12219;BME280;6172;42.646;23.344;2023-03-25T02:34:16;94217.16;;;6.66;100.00
12219;BME280;6172;42.646;23.344;2023-03-25T02:37:13;94210.28;;;6.51;100.00
12219;BME280;6172;42.646;23.344;2023-03-25T02:39:49;94210.78;;;6.35;100.00
12219;BME280;6172;42.646;23.344;2023-03-25T02:42:22;94204.31;;;6.26;100.00
12219;BME280;6172;42.646;23.344;2023-03-25T02:44:55;94200.91;;;6.11;100.00
12219;BME280;6172;42.646;23.344;2023-03-25T02:47:29;94222.91;;;6.20;100.00
12219;BME280;6172;42.646;23.344;2023-03-25T02:50:00;94215.97;;;6.12;100.00
12219;BME280;6172;42.646;23.344;2023-03-25T02:52:33;94205.53;;;6.14;100.00
12219;BME280;6172;42.646;23.344;2023-03-25T02:55:06;94202.72;;;6.28;100.00
12219;BME280;6172;42.646;23.344;2023-03-25T02:57:38;94195.00;;;6.30;100.00
12219;BME280;6172;42.646;23.344;2023-03-25T03:00:07;94196.88;;;6.37;100.00
12219;BME280;6172;42.646;23.344;2023-03-25T03:02:42;94204.13;;;6.47;100.00
12219;BME280;6172;42.646;23.344;2023-03-25T03:05:23;94192.53;;;6.53;100.00
12219;BME280;6172;42.646;23.344;2023-03-25T03:07:57;94190.59;;;6.47;100.00
12219;BME280;6172;42.646;23.344;2023-03-25T03:10:38;94200.81;;;6.25;100.00
12219;BME280;6172;42.646;23.344;2023-03-25T03:13:15;94201.16;;;6.34;100.00
12219;BME280;6172;42.646;23.344;2023-03-25T03:15:53;94192.63;;;6.36;100.00
12219;BME280;6172;42.646;23.344;2023-03-25T03:18:27;94192.03;;;6.11;100.00
12219;BME280;6172;42.646;23.344;2023-03-25T03:21:08;94199.84;;;5.98;100.00
12219;BME280;6172;42.646;23.344;2023-03-25T03:23:48;94198.25;;;6.04;100.00
12219;BME280;6172;42.646;23.344;2023-03-25T03:26:26;94184.25;;;6.20;100.00
12219;BME280;6172;42.646;23.344;2023-03-25T03:28:58;94195.06;;;6.20;100.00
12219;BME280;6172;42.646;23.344;2023-03-25T03:31:32;94189.75;;;6.02;100.00
12219;BME280;6172;42.646;23.344;2023-03-25T03:34:03;94195.91;;;6.10;100.00
12219;BME280;6172;42.646;23.344;2023-03-25T03:36:39;94205.91;;;6.16;100.00
12219;BME280;6172;42.646;23.344;2023-03-25T03:39:12;94202.84;;;6.14;100.00
12219;BME280;6172;42.646;23.344;2023-03-25T03:41:47;94206.72;;;6.13;100.00
12219;BME280;6172;42.646;23.344;2023-03-25T03:44:20;94201.31;;;6.10;100.00
12219;BME280;6172;42.646;23.344;2023-03-25T03:46:51;94208.97;;;6.18;100.00
12219;BME280;6172;42.646;23.344;2023-03-25T03:49:23;94204.66;;;6.28;100.00
12219;BME280;6172;42.646;23.344;2023-03-25T03:51:56;94206.94;;;6.33;100.00
12219;BME280;6172;42.646;23.344;2023-03-25T03:54:27;94201.56;;;6.29;100.00
12219;BME280;6172;42.646;23.344;2023-03-25T03:57:01;94213.59;;;6.25;100.00
12219;BME280;6172;42.646;23.344;2023-03-25T03:59:34;94206.22;;;6.25;100.00
12219;BME280;6172;42.646;23.344;2023-03-25T04:02:10;94201.09;;;6.41;100.00
12219;BME280;6172;42.646;23.344;2023-03-25T04:04:40;94195.66;;;6.41;100.00
12219;BME280;6172;42.646;23.344;2023-03-25T04:07:11;94212.59;;;6.56;100.00
12219;BME280;6172;42.646;23.344;2023-03-25T04:09:45;94211.41;;;6.60;100.00
12219;BME280;6172;42.646;23.344;2023-03-25T04:12:24;94211.06;;;6.55;100.00
12219;BME280;6172;42.646;23.344;2023-03-25T04:14:52;94205.63;;;6.58;100.00
12219;BME280;6172;42.646;23.344;2023-03-25T04:17:20;94209.06;;;6.62;100.00
12219;BME280;6172;42.646;23.344;2023-03-25T04:19:48;94197.09;;;6.60;100.00
12219;BME280;6172;42.646;23.344;2023-03-25T04:22:18;94205.19;;;6.63;100.00
12219;BME280;6172;42.646;23.344;2023-03-25T04:24:46;94205.31;;;6.46;100.00
12219;BME280;6172;42.646;23.344;2023-03-25T04:27:16;94204.09;;;6.54;100.00
12219;BME280;6172;42.646;23.344;2023-03-25T04:29:46;94197.97;;;6.46;100.00
12219;BME280;6172;42.646;23.344;2023-03-25T04:32:13;94205.81;;;6.30;100.00
12219;BME280;6172;42.646;23.344;2023-03-25T04:34:42;94206.63;;;6.24;100.00
12219;BME280;6172;42.646;23.344;2023-03-25T04:37:09;94202.72;;;6.28;100.00
12219;BME280;6172;42.646;23.344;2023-03-25T04:39:36;94199.50;;;6.44;100.00
12219;BME280;6172;42.646;23.344;2023-03-25T04:42:04;94212.63;;;6.52;100.00
12219;BME280;6172;42.646;23.344;2023-03-25T04:44:31;94210.28;;;6.51;100.00
12219;BME280;6172;42.646;23.344;2023-03-25T04:47:08;94211.06;;;6.55;100.00
12219;BME280;6172;42.646;23.344;2023-03-25T04:49:36;94214.94;;;6.50;100.00
12219;BME280;6172;42.646;23.344;2023-03-25T04:52:03;94224.28;;;6.42;100.00
12219;BME280;6172;42.646;23.344;2023-03-25T04:54:32;94221.91;;;6.55;100.00
12219;BME280;6172;42.646;23.344;2023-03-25T04:56:59;94213.25;;;6.70;100.00
12219;BME280;6172;42.646;23.344;2023-03-25T04:59:26;94210.41;;;6.84;100.00
12219;BME280;6172;42.646;23.344;2023-03-25T05:01:54;94222.44;;;6.80;100.00
12219;BME280;6172;42.646;23.344;2023-03-25T05:04:22;94227.59;;;6.64;100.00
12219;BME280;6172;42.646;23.344;2023-03-25T05:06:49;94215.31;;;6.56;100.00
12219;BME280;6172;42.646;23.344;2023-03-25T05:09:19;94214.84;;;6.64;100.00
12219;BME280;6172;42.646;23.344;2023-03-25T05:11:51;94225.56;;;6.78;100.00
12219;BME280;6172;42.646;23.344;2023-03-25T05:14:20;94217.66;;;6.98;100.00
12219;BME280;6172;42.646;23.344;2023-03-25T05:16:50;94212.88;;;7.09;100.00
12219;BME280;6172;42.646;23.344;2023-03-25T05:19:17;94211.59;;;6.83;100.00
12219;BME280;6172;42.646;23.344;2023-03-25T05:21:46;94210.09;;;6.79;100.00
12219;BME280;6172;42.646;23.344;2023-03-25T05:24:14;94219.34;;;6.81;100.00
12219;BME280;6172;42.646;23.344;2023-03-25T05:26:41;94216.03;;;7.04;100.00
12219;BME280;6172;42.646;23.344;2023-03-25T05:29:10;94219.28;;;7.25;100.00
12219;BME280;6172;42.646;23.344;2023-03-25T05:31:38;94221.78;;;7.46;100.00
12219;BME280;6172;42.646;23.344;2023-03-25T05:34:05;94211.50;;;7.64;100.00
12219;BME280;6172;42.646;23.344;2023-03-25T05:36:33;94208.84;;;7.91;100.00
12219;BME280;6172;42.646;23.344;2023-03-25T05:39:02;94212.19;;;8.29;100.00
12219;BME280;6172;42.646;23.344;2023-03-25T05:41:30;94208.34;;;9.22;100.00
12219;BME280;6172;42.646;23.344;2023-03-25T05:44:03;94198.09;;;11.07;100.00
12219;BME280;6172;42.646;23.344;2023-03-25T05:46:30;94200.53;;;12.69;100.00
12219;BME280;6172;42.646;23.344;2023-03-25T05:48:57;94183.75;;;13.95;80.22
12219;BME280;6172;42.646;23.344;2023-03-25T05:51:28;94185.06;;;14.73;75.25
12219;BME280;6172;42.646;23.344;2023-03-25T05:53:58;94185.84;;;15.67;67.76
12219;BME280;6172;42.646;23.344;2023-03-25T05:56:28;94190.59;;;17.60;56.80
12219;BME280;6172;42.646;23.344;2023-03-25T05:58:55;94188.41;;;19.04;48.10
12219;BME280;6172;42.646;23.344;2023-03-25T06:01:22;94188.53;;;19.29;46.12
12219;BME280;6172;42.646;23.344;2023-03-25T06:03:50;94188.25;;;19.88;45.12
12219;BME280;6172;42.646;23.344;2023-03-25T06:06:16;94182.25;;;20.86;41.06
12219;BME280;6172;42.646;23.344;2023-03-25T06:08:47;94186.63;;;20.72;38.76
12219;BME280;6172;42.646;23.344;2023-03-25T06:11:16;94185.72;;;20.55;38.65
12219;BME280;6172;42.646;23.344;2023-03-25T06:13:46;94179.50;;;19.49;39.33
12219;BME280;6172;42.646;23.344;2023-03-25T06:16:18;94186.81;;;19.32;38.98
12219;BME280;6172;42.646;23.344;2023-03-25T06:18:49;94178.63;;;20.23;38.81
12219;BME280;6172;42.646;23.344;2023-03-25T06:21:20;94183.50;;;19.88;38.20
12219;BME280;6172;42.646;23.344;2023-03-25T06:23:48;94175.28;;;19.33;39.04
12219;BME280;6172;42.646;23.344;2023-03-25T06:26:15;94181.13;;;18.72;40.25
12219;BME280;6172;42.646;23.344;2023-03-25T06:28:44;94191.63;;;18.15;39.88
12219;BME280;6172;42.646;23.344;2023-03-25T06:31:12;94187.22;;;17.56;41.28
12219;BME280;6172;42.646;23.344;2023-03-25T06:33:41;94184.38;;;17.89;42.11
12219;BME280;6172;42.646;23.344;2023-03-25T06:36:09;94190.53;;;18.36;42.13
12219;BME280;6172;42.646;23.344;2023-03-25T06:38:37;94193.94;;;18.31;41.22
12219;BME280;6172;42.646;23.344;2023-03-25T06:41:05;94183.28;;;18.39;41.34
12219;BME280;6172;42.646;23.344;2023-03-25T06:43:32;94189.22;;;18.46;40.69
12219;BME280;6172;42.646;23.344;2023-03-25T06:46:01;94186.25;;;18.50;41.39
12219;BME280;6172;42.646;23.344;2023-03-25T06:48:28;94189.00;;;18.79;40.79
12219;BME280;6172;42.646;23.344;2023-03-25T06:50:56;94184.03;;;19.32;39.93
12219;BME280;6172;42.646;23.344;2023-03-25T06:53:23;94193.25;;;19.84;38.54
12219;BME280;6172;42.646;23.344;2023-03-25T06:55:50;94182.00;;;19.67;38.10
12219;BME280;6172;42.646;23.344;2023-03-25T06:58:17;94194.13;;;18.86;40.20
12219;BME280;6172;42.646;23.344;2023-03-25T07:00:44;94194.44;;;19.22;39.53
12219;BME280;6172;42.646;23.344;2023-03-25T07:03:15;94201.56;;;18.22;40.54
12219;BME280;6172;42.646;23.344;2023-03-25T07:05:44;94196.34;;;18.53;40.48
12219;BME280;6172;42.646;23.344;2023-03-25T07:08:11;94198.41;;;18.29;41.19
12219;BME280;6172;42.646;23.344;2023-03-25T07:10:38;94208.44;;;17.41;42.58
12219;BME280;6172;42.646;23.344;2023-03-25T07:13:07;94194.50;;;18.35;41.12
12219;BME280;6172;42.646;23.344;2023-03-25T07:15:35;94197.03;;;18.48;40.90
12219;BME280;6172;42.646;23.344;2023-03-25T07:18:04;94188.19;;;19.07;40.60
12219;BME280;6172;42.646;23.344;2023-03-25T07:20:35;94178.56;;;19.03;39.43
12219;BME280;6172;42.646;23.344;2023-03-25T07:23:04;94179.41;;;19.09;39.83
12219;BME280;6172;42.646;23.344;2023-03-25T07:25:31;94177.44;;;19.44;39.42
12219;BME280;6172;42.646;23.344;2023-03-25T07:27:58;94184.59;;;19.56;39.14
12219;BME280;6172;42.646;23.344;2023-03-25T07:30:27;94191.84;;;18.26;40.69
12219;BME280;6172;42.646;23.344;2023-03-25T07:32:54;94184.75;;;19.12;40.79
12219;BME280;6172;42.646;23.344;2023-03-25T07:35:21;94186.47;;;19.44;39.21
12219;BME280;6172;42.646;23.344;2023-03-25T07:37:53;94192.97;;;20.02;39.23
12219;BME280;6172;42.646;23.344;2023-03-25T07:40:22;94185.97;;;19.86;39.75
12219;BME280;6172;42.646;23.344;2023-03-25T07:42:51;94189.41;;;18.72;41.56
12219;BME280;6172;42.646;23.344;2023-03-25T07:45:19;94186.53;;;18.81;42.30
12219;BME280;6172;42.646;23.344;2023-03-25T07:47:48;94178.09;;;19.79;40.47
12219;BME280;6172;42.646;23.344;2023-03-25T07:50:15;94170.06;;;20.01;39.63
12219;BME280;6172;42.646;23.344;2023-03-25T07:52:54;94171.13;;;19.64;40.49
12219;BME280;6172;42.646;23.344;2023-03-25T07:55:21;94172.16;;;19.86;39.69
12219;BME280;6172;42.646;23.344;2023-03-25T07:57:48;94170.25;;;19.52;40.38
12219;BME280;6172;42.646;23.344;2023-03-25T08:00:15;94165.41;;;19.67;40.11
12219;BME280;6172;42.646;23.344;2023-03-25T08:02:43;94172.44;;;19.68;39.72
12219;BME280;6172;42.646;23.344;2023-03-25T08:05:10;94147.44;;;19.77;39.73
12219;BME280;6172;42.646;23.344;2023-03-25T08:07:37;94161.94;;;19.72;39.42
12219;BME280;6172;42.646;23.344;2023-03-25T08:10:07;94150.91;;;20.43;38.52
12219;BME280;6172;42.646;23.344;2023-03-25T08:12:34;94144.50;;;20.06;38.49
12219;BME280;6172;42.646;23.344;2023-03-25T08:15:02;94152.06;;;18.91;40.69
12219;BME280;6172;42.646;23.344;2023-03-25T08:17:29;94153.09;;;18.93;42.28
12219;BME280;6172;42.646;23.344;2023-03-25T08:19:56;94149.59;;;19.93;40.22
12219;BME280;6172;42.646;23.344;2023-03-25T08:22:23;94148.19;;;20.49;39.04
12219;BME280;6172;42.646;23.344;2023-03-25T08:24:51;94143.81;;;19.91;39.44
12219;BME280;6172;42.646;23.344;2023-03-25T08:27:21;94132.91;;;19.62;40.02
12219;BME280;6172;42.646;23.344;2023-03-25T08:29:48;94140.66;;;18.69;42.36
12219;BME280;6172;42.646;23.344;2023-03-25T08:32:20;94138.66;;;17.97;44.06
12219;BME280;6172;42.646;23.344;2023-03-25T08:34:48;94144.50;;;17.37;45.64
12219;BME280;6172;42.646;23.344;2023-03-25T08:37:15;94147.44;;;17.57;45.81
12219;BME280;6172;42.646;23.344;2023-03-25T08:39:43;94142.91;;;17.21;47.42
12219;BME280;6172;42.646;23.344;2023-03-25T08:42:11;94137.03;;;17.76;46.43
12219;BME280;6172;42.646;23.344;2023-03-25T08:44:44;94127.94;;;18.28;46.12
12219;BME280;6172;42.646;23.344;2023-03-25T08:47:12;94123.72;;;18.61;44.58
12219;BME280;6172;42.646;23.344;2023-03-25T08:49:39;94123.34;;;18.54;44.28
12219;BME280;6172;42.646;23.344;2023-03-25T08:52:06;94122.72;;;19.28;43.24
12219;BME280;6172;42.646;23.344;2023-03-25T08:54:35;94121.78;;;18.82;42.66
12219;BME280;6172;42.646;23.344;2023-03-25T08:57:04;94123.84;;;18.09;44.75
12219;BME280;6172;42.646;23.344;2023-03-25T08:59:31;94127.72;;;18.31;43.57
12219;BME280;6172;42.646;23.344;2023-03-25T09:02:00;94120.78;;;18.65;43.92
12219;BME280;6172;42.646;23.344;2023-03-25T09:04:28;94121.00;;;18.81;43.56
12219;BME280;6172;42.646;23.344;2023-03-25T09:06:55;94113.06;;;17.96;45.19
12219;BME280;6172;42.646;23.344;2023-03-25T09:09:23;94107.53;;;18.69;44.27
12219;BME280;6172;42.646;23.344;2023-03-25T09:11:50;94096.31;;;19.27;42.87
12219;BME280;6172;42.646;23.344;2023-03-25T09:14:17;94098.75;;;19.85;40.96
12219;BME280;6172;42.646;23.344;2023-03-25T09:16:49;94086.44;;;20.37;40.54
12219;BME280;6172;42.646;23.344;2023-03-25T09:19:18;94092.91;;;20.03;40.51
12219;BME280;6172;42.646;23.344;2023-03-25T09:21:46;94083.84;;;20.28;39.97
12219;BME280;6172;42.646;23.344;2023-03-25T09:24:30;94087.00;;;20.78;38.83
12219;BME280;6172;42.646;23.344;2023-03-25T09:26:58;94082.69;;;20.40;39.46
12219;BME280;6172;42.646;23.344;2023-03-25T09:29:26;94081.44;;;20.10;39.59
12219;BME280;6172;42.646;23.344;2023-03-25T09:31:53;94081.28;;;19.74;39.95
12219;BME280;6172;42.646;23.344;2023-03-25T09:34:24;94079.28;;;19.74;40.72
12219;BME280;6172;42.646;23.344;2023-03-25T09:36:53;94078.31;;;19.17;41.60
12219;BME280;6172;42.646;23.344;2023-03-25T09:39:20;94073.22;;;19.50;40.83
12219;BME280;6172;42.646;23.344;2023-03-25T09:42:13;94077.31;;;20.31;40.18
12219;BME280;6172;42.646;23.344;2023-03-25T09:44:54;94078.28;;;20.90;38.92
12219;BME280;6172;42.646;23.344;2023-03-25T09:47:25;94073.44;;;21.27;38.46
12219;BME280;6172;42.646;23.344;2023-03-25T09:50:05;94080.00;;;21.35;37.23
12219;BME280;6172;42.646;23.344;2023-03-25T09:52:48;94075.69;;;21.23;37.46
12219;BME280;6172;42.646;23.344;2023-03-25T09:55:22;94058.75;;;20.37;38.67
12219;BME280;6172;42.646;23.344;2023-03-25T09:57:57;94059.59;;;20.49;39.12
12219;BME280;6172;42.646;23.344;2023-03-25T10:00:26;94049.00;;;19.91;40.00
12219;BME280;6172;42.646;23.344;2023-03-25T10:03:00;94060.06;;;20.16;39.86
12219;BME280;6172;42.646;23.344;2023-03-25T10:05:52;94065.13;;;20.49;39.51
12219;BME280;6172;42.646;23.344;2023-03-25T10:08:31;94057.09;;;20.87;38.66
12219;BME280;6172;42.646;23.344;2023-03-25T10:11:05;94039.97;;;20.83;39.07
12219;BME280;6172;42.646;23.344;2023-03-25T10:13:39;94047.06;;;20.22;39.03
12219;BME280;6172;42.646;23.344;2023-03-25T10:16:17;94043.03;;;20.54;39.24
12219;BME280;6172;42.646;23.344;2023-03-25T10:18:58;94040.66;;;20.78;38.35
12219;BME280;6172;42.646;23.344;2023-03-25T10:21:39;94027.69;;;21.01;37.24
12219;BME280;6172;42.646;23.344;2023-03-25T10:24:16;94023.75;;;21.18;37.22
12219;BME280;6172;42.646;23.344;2023-03-25T10:26:55;94018.09;;;21.49;36.21
12219;BME280;6172;42.646;23.344;2023-03-25T10:29:29;94018.41;;;21.85;35.25
12219;BME280;6172;42.646;23.344;2023-03-25T10:31:59;94011.13;;;21.93;34.94
12219;BME280;6172;42.646;23.344;2023-03-25T10:34:34;94013.66;;;22.13;33.82
12219;BME280;6172;42.646;23.344;2023-03-25T10:37:09;94001.56;;;22.38;32.68
12219;BME280;6172;42.646;23.344;2023-03-25T10:39:41;94000.06;;;22.37;32.40
12219;BME280;6172;42.646;23.344;2023-03-25T10:42:18;94004.81;;;22.64;32.21
12219;BME280;6172;42.646;23.344;2023-03-25T10:44:47;93997.75;;;22.57;32.63
12219;BME280;6172;42.646;23.344;2023-03-25T10:47:17;93985.13;;;22.51;32.01
12219;BME280;6172;42.646;23.344;2023-03-25T10:49:47;93982.91;;;22.27;32.72
12219;BME280;6172;42.646;23.344;2023-03-25T10:52:17;93977.31;;;22.55;32.17
12219;BME280;6172;42.646;23.344;2023-03-25T10:54:47;93981.88;;;22.36;32.09
12219;BME280;6172;42.646;23.344;2023-03-25T10:57:19;93983.16;;;22.40;32.14
12219;BME280;6172;42.646;23.344;2023-03-25T10:59:56;93976.59;;;22.32;32.26
12219;BME280;6172;42.646;23.344;2023-03-25T11:02:27;93979.34;;;22.10;32.57
12219;BME280;6172;42.646;23.344;2023-03-25T11:04:59;93969.25;;;21.91;32.98
12219;BME280;6172;42.646;23.344;2023-03-25T11:07:32;93964.94;;;21.73;32.22
12219;BME280;6172;42.646;23.344;2023-03-25T11:10:16;93967.91;;;21.42;33.30
12219;BME280;6172;42.646;23.344;2023-03-25T11:12:45;93964.13;;;21.39;33.31
12219;BME280;6172;42.646;23.344;2023-03-25T11:15:15;93956.03;;;21.41;33.70
12219;BME280;6172;42.646;23.344;2023-03-25T11:17:46;93951.84;;;21.68;33.61
12219;BME280;6172;42.646;23.344;2023-03-25T11:20:24;93941.00;;;21.64;33.76
12219;BME280;6172;42.646;23.344;2023-03-25T11:22:54;93935.97;;;21.80;33.89
12219;BME280;6172;42.646;23.344;2023-03-25T11:25:29;93930.66;;;21.65;34.64
12219;BME280;6172;42.646;23.344;2023-03-25T11:28:34;93934.94;;;22.05;34.02
12219;BME280;6172;42.646;23.344;2023-03-25T11:31:09;93929.91;;;21.92;34.41
12219;BME280;6172;42.646;23.344;2023-03-25T11:33:39;93928.91;;;21.90;34.27
12219;BME280;6172;42.646;23.344;2023-03-25T11:36:16;93910.97;;;22.29;33.53
12219;BME280;6172;42.646;23.344;2023-03-25T11:38:51;93919.31;;;22.02;33.64
12219;BME280;6172;42.646;23.344;2023-03-25T11:41:21;93910.69;;;22.22;33.36
12219;BME280;6172;42.646;23.344;2023-03-25T11:43:49;93919.06;;;21.83;33.81
12219;BME280;6172;42.646;23.344;2023-03-25T11:46:17;93909.22;;;21.82;34.13
12219;BME280;6172;42.646;23.344;2023-03-25T11:48:54;93905.19;;;22.00;33.68
12219;BME280;6172;42.646;23.344;2023-03-25T11:51:23;93906.06;;;22.68;32.93
12219;BME280;6172;42.646;23.344;2023-03-25T11:53:56;93891.97;;;23.23;32.09
12219;BME280;6172;42.646;23.344;2023-03-25T11:56:31;93890.06;;;23.77;31.28
12219;BME280;6172;42.646;23.344;2023-03-25T11:58:59;93890.22;;;24.68;29.98
12219;BME280;6172;42.646;23.344;2023-03-25T12:01:28;93887.16;;;24.72;29.48
12219;BME280;6172;42.646;23.344;2023-03-25T12:04:07;93882.25;;;24.06;29.77
12219;BME280;6172;42.646;23.344;2023-03-25T12:06:51;93873.38;;;23.77;30.14
12219;BME280;6172;42.646;23.344;2023-03-25T12:09:20;93881.69;;;24.13;29.85
12219;BME280;6172;42.646;23.344;2023-03-25T12:11:56;93861.31;;;23.99;29.28
12219;BME280;6172;42.646;23.344;2023-03-25T12:14:36;93864.28;;;23.42;30.23
12219;BME280;6172;42.646;23.344;2023-03-25T12:17:17;93854.88;;;22.53;31.05
12219;BME280;6172;42.646;23.344;2023-03-25T12:19:58;93870.53;;;22.56;31.32
12219;BME280;6172;42.646;23.344;2023-03-25T12:22:52;93868.22;;;22.60;30.89
12219;BME280;6172;42.646;23.344;2023-03-25T12:25:34;93868.91;;;21.76;32.23
12219;BME280;6172;42.646;23.344;2023-03-25T12:28:13;93871.88;;;21.89;32.23
12219;BME280;6172;42.646;23.344;2023-03-25T12:30:57;93866.13;;;21.64;32.44
12219;BME280;6172;42.646;23.344;2023-03-25T12:33:38;93872.88;;;21.36;32.36
12219;BME280;6172;42.646;23.344;2023-03-25T12:36:17;93881.44;;;21.27;32.54
12219;BME280;6172;42.646;23.344;2023-03-25T12:38:55;93878.66;;;21.16;32.73
12219;BME280;6172;42.646;23.344;2023-03-25T12:41:30;93879.84;;;20.87;33.24
12219;BME280;6172;42.646;23.344;2023-03-25T12:44:03;93877.25;;;20.78;33.52
12219;BME280;6172;42.646;23.344;2023-03-25T12:46:57;93877.34;;;20.95;33.35
12219;BME280;6172;42.646;23.344;2023-03-25T12:49:39;93877.59;;;20.91;32.84
12219;BME280;6172;42.646;23.344;2023-03-25T12:52:15;93881.63;;;20.90;32.92
12219;BME280;6172;42.646;23.344;2023-03-25T12:54:58;93877.81;;;20.82;33.65
12219;BME280;6172;42.646;23.344;2023-03-25T12:57:41;93881.66;;;20.43;33.54
12219;BME280;6172;42.646;23.344;2023-03-25T13:00:28;93879.41;;;20.52;33.84
12219;BME280;6172;42.646;23.344;2023-03-25T13:03:13;93879.38;;;20.36;33.60
12219;BME280;6172;42.646;23.344;2023-03-25T13:05:47;93875.47;;;20.11;33.95
12219;BME280;6172;42.646;23.344;2023-03-25T13:08:18;93877.63;;;20.02;34.17
12219;BME280;6172;42.646;23.344;2023-03-25T13:10:53;93873.41;;;20.06;34.58
12219;BME280;6172;42.646;23.344;2023-03-25T13:13:25;93873.41;;;20.06;34.49
12219;BME280;6172;42.646;23.344;2023-03-25T13:16:01;93879.34;;;19.94;34.53
12219;BME280;6172;42.646;23.344;2023-03-25T13:18:32;93868.56;;;20.01;34.44
12219;BME280;6172;42.646;23.344;2023-03-25T13:21:04;93872.78;;;19.91;34.27
12219;BME280;6172;42.646;23.344;2023-03-25T13:23:35;93864.56;;;19.66;35.43
12219;BME280;6172;42.646;23.344;2023-03-25T13:26:06;93870.84;;;19.66;35.24
12219;BME280;6172;42.646;23.344;2023-03-25T13:28:39;93867.56;;;19.31;36.04